sensor_id;sensor_type;location;lat;lon;timestamp;P1;durP1;ratioP1;P2;durP2;ratioP2
20318;SDS011;10317;47.254;11.314;2024-03-08T00:01:59;31.10;;;15.70;;
20318;SDS011;10317;47.254;11.314;2024-03-08T00:04:25;30.42;;;13.00;;
20318;SDS011;10317;47.254;11.314;2024-03-08T00:06:51;29.08;;;14.27;;
20318;SDS011;10317;47.254;11.314;2024-03-08T00:09:17;27.35;;;13.75;;
20318;SDS011;10317;47.254;11.314;2024-03-08T00:11:43;31.02;;;14.20;;
20318;SDS011;10317;47.254;11.314;2024-03-08T00:14:08;30.35;;;14.90;;
20318;SDS011;10317;47.254;11.314;2024-03-08T00:16:34;27.60;;;13.20;;
20318;SDS011;10317;47.254;11.314;2024-03-08T00:19:03;25.85;;;13.40;;
20318;SDS011;10317;47.254;11.314;2024-03-08T00:21:29;31.63;;;13.80;;
20318;SDS011;10317;47.254;11.314;2024-03-08T00:23:54;28.35;;;14.23;;
20318;SDS011;10317;47.254;11.314;2024-03-08T00:26:20;30.00;;;16.08;;
20318;SDS011;10317;47.254;11.314;2024-03-08T00:28:47;30.75;;;13.88;;
20318;SDS011;10317;47.254;11.314;2024-03-08T00:31:14;31.40;;;14.30;;
20318;SDS011;10317;47.254;11.314;2024-03-08T00:33:42;33.17;;;15.48;;
20318;SDS011;10317;47.254;11.314;2024-03-08T00:36:08;29.98;;;15.05;;
20318;SDS011;10317;47.254;11.314;2024-03-08T00:38:33;28.33;;;14.20;;
20318;SDS011;10317;47.254;11.314;2024-03-08T00:40:59;29.90;;;14.38;;
20318;SDS011;10317;47.254;11.314;2024-03-08T00:43:25;34.60;;;15.05;;
20318;SDS011;10317;47.254;11.314;2024-03-08T00:45:51;30.90;;;14.48;;
20318;SDS011;10317;47.254;11.314;2024-03-08T00:48:16;31.67;;;15.55;;
20318;SDS011;10317;47.254;11.314;2024-03-08T00:50:42;31.27;;;14.48;;
20318;SDS011;10317;47.254;11.314;2024-03-08T00:53:10;35.45;;;15.52;;
20318;SDS011;10317;47.254;11.314;2024-03-08T00:55:37;33.63;;;14.15;;
20318;SDS011;10317;47.254;11.314;2024-03-08T00:58:03;33.17;;;15.10;;
20318;SDS011;10317;47.254;11.314;2024-03-08T01:00:29;32.10;;;15.48;;
20318;SDS011;10317;47.254;11.314;2024-03-08T01:02:55;27.98;;;14.52;;
20318;SDS011;10317;47.254;11.314;2024-03-08T01:05:20;29.95;;;14.25;;
20318;SDS011;10317;47.254;11.314;2024-03-08T01:07:48;38.65;;;15.15;;
20318;SDS011;10317;47.254;11.314;2024-03-08T01:10:14;28.10;;;14.13;;
20318;SDS011;10317;47.254;11.314;2024-03-08T01:12:40;29.85;;;13.93;;
20318;SDS011;10317;47.254;11.314;2024-03-08T01:15:08;31.95;;;15.10;;
20318;SDS011;10317;47.254;11.314;2024-03-08T01:17:35;28.15;;;15.50;;
20318;SDS011;10317;47.254;11.314;2024-03-08T01:20:01;29.70;;;14.02;;
20318;SDS011;10317;47.254;11.314;2024-03-08T01:22:27;27.23;;;13.32;;
20318;SDS011;10317;47.254;11.314;2024-03-08T01:24:54;32.25;;;13.40;;
20318;SDS011;10317;47.254;11.314;2024-03-08T01:27:20;28.48;;;14.57;;
20318;SDS011;10317;47.254;11.314;2024-03-08T01:29:46;34.45;;;14.63;;
20318;SDS011;10317;47.254;11.314;2024-03-08T01:32:12;29.77;;;13.85;;
20318;SDS011;10317;47.254;11.314;2024-03-08T01:34:38;24.35;;;12.68;;
20318;SDS011;10317;47.254;11.314;2024-03-08T01:37:04;29.45;;;13.98;;
20318;SDS011;10317;47.254;11.314;2024-03-08T01:39:30;24.65;;;11.55;;
20318;SDS011;10317;47.254;11.314;2024-03-08T01:41:57;31.60;;;12.32;;
20318;SDS011;10317;47.254;11.314;2024-03-08T01:44:23;27.88;;;13.52;;
20318;SDS011;10317;47.254;11.314;2024-03-08T01:46:49;26.40;;;10.98;;
20318;SDS011;10317;47.254;11.314;2024-03-08T01:49:17;26.20;;;12.65;;
20318;SDS011;10317;47.254;11.314;2024-03-08T01:51:46;22.85;;;12.23;;
20318;SDS011;10317;47.254;11.314;2024-03-08T01:54:13;27.27;;;12.73;;
20318;SDS011;10317;47.254;11.314;2024-03-08T01:56:40;26.48;;;12.07;;
20318;SDS011;10317;47.254;11.314;2024-03-08T01:59:06;24.42;;;12.70;;
20318;SDS011;10317;47.254;11.314;2024-03-08T02:01:33;25.98;;;12.73;;
20318;SDS011;10317;47.254;11.314;2024-03-08T02:03:59;22.73;;;11.27;;
20318;SDS011;10317;47.254;11.314;2024-03-08T02:06:25;21.60;;;11.57;;
20318;SDS011;10317;47.254;11.314;2024-03-08T02:08:50;25.05;;;11.60;;
20318;SDS011;10317;47.254;11.314;2024-03-08T02:11:16;24.33;;;10.98;;
20318;SDS011;10317;47.254;11.314;2024-03-08T02:13:43;23.15;;;11.18;;
20318;SDS011;10317;47.254;11.314;2024-03-08T02:16:09;24.67;;;12.50;;
20318;SDS011;10317;47.254;11.314;2024-03-08T02:18:35;27.13;;;12.40;;
20318;SDS011;10317;47.254;11.314;2024-03-08T02:21:02;22.98;;;11.77;;
20318;SDS011;10317;47.254;11.314;2024-03-08T02:23:29;22.40;;;11.15;;
20318;SDS011;10317;47.254;11.314;2024-03-08T02:25:55;23.33;;;10.77;;
20318;SDS011;10317;47.254;11.314;2024-03-08T02:28:22;25.23;;;11.43;;
20318;SDS011;10317;47.254;11.314;2024-03-08T02:30:49;24.95;;;11.52;;
20318;SDS011;10317;47.254;11.314;2024-03-08T02:33:21;22.58;;;10.10;;
20318;SDS011;10317;47.254;11.314;2024-03-08T02:35:48;24.65;;;10.73;;
20318;SDS011;10317;47.254;11.314;2024-03-08T02:38:14;22.98;;;11.48;;
20318;SDS011;10317;47.254;11.314;2024-03-08T02:40:42;19.52;;;9.63;;
20318;SDS011;10317;47.254;11.314;2024-03-08T02:43:08;24.33;;;11.15;;
20318;SDS011;10317;47.254;11.314;2024-03-08T02:45:34;24.48;;;10.65;;
20318;SDS011;10317;47.254;11.314;2024-03-08T02:48:00;24.02;;;10.48;;
20318;SDS011;10317;47.254;11.314;2024-03-08T02:50:26;15.48;;;9.32;;
20318;SDS011;10317;47.254;11.314;2024-03-08T02:52:52;19.25;;;9.77;;
20318;SDS011;10317;47.254;11.314;2024-03-08T02:55:17;22.58;;;9.25;;
20318;SDS011;10317;47.254;11.314;2024-03-08T02:57:43;17.10;;;8.75;;
20318;SDS011;10317;47.254;11.314;2024-03-08T03:00:09;17.58;;;7.75;;
20318;SDS011;10317;47.254;11.314;2024-03-08T03:02:36;13.63;;;8.02;;
20318;SDS011;10317;47.254;11.314;2024-03-08T03:05:02;15.85;;;7.63;;
20318;SDS011;10317;47.254;11.314;2024-03-08T03:07:31;14.50;;;7.32;;
20318;SDS011;10317;47.254;11.314;2024-03-08T03:09:58;16.00;;;7.78;;
20318;SDS011;10317;47.254;11.314;2024-03-08T03:12:25;16.02;;;7.88;;
20318;SDS011;10317;47.254;11.314;2024-03-08T03:14:54;12.80;;;7.15;;
20318;SDS011;10317;47.254;11.314;2024-03-08T03:17:22;14.73;;;7.32;;
20318;SDS011;10317;47.254;11.314;2024-03-08T03:19:50;9.85;;;6.07;;
20318;SDS011;10317;47.254;11.314;2024-03-08T03:22:17;13.60;;;6.70;;
20318;SDS011;10317;47.254;11.314;2024-03-08T03:24:43;12.43;;;6.60;;
20318;SDS011;10317;47.254;11.314;2024-03-08T03:27:11;13.63;;;6.75;;
20318;SDS011;10317;47.254;11.314;2024-03-08T03:29:38;13.70;;;6.10;;
20318;SDS011;10317;47.254;11.314;2024-03-08T03:32:11;12.65;;;6.55;;
20318;SDS011;10317;47.254;11.314;2024-03-08T03:34:37;16.02;;;6.65;;
20318;SDS011;10317;47.254;11.314;2024-03-08T03:37:03;10.45;;;5.80;;
20318;SDS011;10317;47.254;11.314;2024-03-08T03:39:30;10.60;;;5.97;;
20318;SDS011;10317;47.254;11.314;2024-03-08T03:41:59;15.13;;;6.53;;
20318;SDS011;10317;47.254;11.314;2024-03-08T03:44:27;16.30;;;5.47;;
20318;SDS011;10317;47.254;11.314;2024-03-08T03:46:53;11.05;;;6.07;;
20318;SDS011;10317;47.254;11.314;2024-03-08T03:49:19;14.73;;;6.72;;
20318;SDS011;10317;47.254;11.314;2024-03-08T03:51:45;13.93;;;6.53;;
20318;SDS011;10317;47.254;11.314;2024-03-08T03:54:11;13.57;;;6.50;;
20318;SDS011;10317;47.254;11.314;2024-03-08T03:56:37;10.60;;;6.28;;
20318;SDS011;10317;47.254;11.314;2024-03-08T03:59:04;14.23;;;6.85;;
20318;SDS011;10317;47.254;11.314;2024-03-08T04:01:31;11.93;;;6.43;;
20318;SDS011;10317;47.254;11.314;2024-03-08T04:03:57;13.63;;;5.95;;
20318;SDS011;10317;47.254;11.314;2024-03-08T04:06:23;9.02;;;5.63;;
20318;SDS011;10317;47.254;11.314;2024-03-08T04:08:49;12.00;;;6.07;;
20318;SDS011;10317;47.254;11.314;2024-03-08T04:11:15;10.57;;;5.55;;
20318;SDS011;10317;47.254;11.314;2024-03-08T04:13:43;9.50;;;5.82;;
20318;SDS011;10317;47.254;11.314;2024-03-08T04:16:09;14.80;;;7.60;;
20318;SDS011;10317;47.254;11.314;2024-03-08T04:18:36;8.20;;;5.53;;
20318;SDS011;10317;47.254;11.314;2024-03-08T04:21:03;13.02;;;5.93;;
20318;SDS011;10317;47.254;11.314;2024-03-08T04:23:33;13.93;;;6.00;;
20318;SDS011;10317;47.254;11.314;2024-03-08T04:26:01;11.55;;;6.28;;
20318;SDS011;10317;47.254;11.314;2024-03-08T04:28:31;12.52;;;6.68;;
20318;SDS011;10317;47.254;11.314;2024-03-08T04:30:57;9.45;;;5.28;;
20318;SDS011;10317;47.254;11.314;2024-03-08T04:33:25;12.82;;;6.72;;
20318;SDS011;10317;47.254;11.314;2024-03-08T04:35:51;10.23;;;6.00;;
20318;SDS011;10317;47.254;11.314;2024-03-08T04:38:17;11.18;;;5.32;;
20318;SDS011;10317;47.254;11.314;2024-03-08T04:40:42;6.13;;;4.78;;
20318;SDS011;10317;47.254;11.314;2024-03-08T04:43:08;13.48;;;6.10;;
20318;SDS011;10317;47.254;11.314;2024-03-08T04:45:35;10.15;;;6.00;;
20318;SDS011;10317;47.254;11.314;2024-03-08T04:48:02;8.75;;;5.90;;
20318;SDS011;10317;47.254;11.314;2024-03-08T04:50:27;10.77;;;6.10;;
20318;SDS011;10317;47.254;11.314;2024-03-08T04:52:54;9.95;;;5.28;;
20318;SDS011;10317;47.254;11.314;2024-03-08T04:55:20;8.27;;;5.63;;
20318;SDS011;10317;47.254;11.314;2024-03-08T04:57:46;9.68;;;5.55;;
20318;SDS011;10317;47.254;11.314;2024-03-08T05:00:13;9.98;;;5.68;;
20318;SDS011;10317;47.254;11.314;2024-03-08T05:02:40;9.55;;;5.13;;
20318;SDS011;10317;47.254;11.314;2024-03-08T05:05:07;12.60;;;5.80;;
20318;SDS011;10317;47.254;11.314;2024-03-08T05:07:34;11.73;;;5.00;;
20318;SDS011;10317;47.254;11.314;2024-03-08T05:10:00;10.57;;;5.00;;
20318;SDS011;10317;47.254;11.314;2024-03-08T05:12:27;9.43;;;5.05;;
20318;SDS011;10317;47.254;11.314;2024-03-08T05:14:53;9.13;;;5.07;;
20318;SDS011;10317;47.254;11.314;2024-03-08T05:17:18;11.35;;;5.40;;
20318;SDS011;10317;47.254;11.314;2024-03-08T05:19:44;8.15;;;5.18;;
20318;SDS011;10317;47.254;11.314;2024-03-08T05:22:10;10.30;;;5.10;;
20318;SDS011;10317;47.254;11.314;2024-03-08T05:24:36;10.38;;;5.97;;
20318;SDS011;10317;47.254;11.314;2024-03-08T05:27:01;9.40;;;4.60;;
20318;SDS011;10317;47.254;11.314;2024-03-08T05:29:28;8.25;;;4.93;;
20318;SDS011;10317;47.254;11.314;2024-03-08T05:31:54;7.80;;;4.70;;
20318;SDS011;10317;47.254;11.314;2024-03-08T05:34:21;8.18;;;4.30;;
20318;SDS011;10317;47.254;11.314;2024-03-08T05:36:47;9.45;;;4.65;;
20318;SDS011;10317;47.254;11.314;2024-03-08T05:39:18;10.70;;;5.63;;
20318;SDS011;10317;47.254;11.314;2024-03-08T05:41:47;6.63;;;4.57;;
20318;SDS011;10317;47.254;11.314;2024-03-08T05:44:13;10.07;;;4.82;;
20318;SDS011;10317;47.254;11.314;2024-03-08T05:46:39;11.65;;;5.00;;
20318;SDS011;10317;47.254;11.314;2024-03-08T05:49:05;7.65;;;4.88;;
20318;SDS011;10317;47.254;11.314;2024-03-08T05:51:35;11.25;;;5.80;;
20318;SDS011;10317;47.254;11.314;2024-03-08T05:54:02;8.25;;;4.47;;
20318;SDS011;10317;47.254;11.314;2024-03-08T05:56:29;9.45;;;4.50;;
20318;SDS011;10317;47.254;11.314;2024-03-08T05:58:54;8.48;;;4.53;;
20318;SDS011;10317;47.254;11.314;2024-03-08T06:01:20;11.35;;;5.03;;
20318;SDS011;10317;47.254;11.314;2024-03-08T06:03:46;9.63;;;5.20;;
20318;SDS011;10317;47.254;11.314;2024-03-08T06:06:14;14.07;;;5.93;;
20318;SDS011;10317;47.254;11.314;2024-03-08T06:08:40;7.75;;;4.68;;
20318;SDS011;10317;47.254;11.314;2024-03-08T06:11:08;8.75;;;4.80;;
20318;SDS011;10317;47.254;11.314;2024-03-08T06:13:34;8.23;;;4.90;;
20318;SDS011;10317;47.254;11.314;2024-03-08T06:16:03;9.93;;;5.00;;
20318;SDS011;10317;47.254;11.314;2024-03-08T06:18:30;9.80;;;5.22;;
20318;SDS011;10317;47.254;11.314;2024-03-08T06:20:56;9.65;;;6.03;;
20318;SDS011;10317;47.254;11.314;2024-03-08T06:23:22;8.68;;;4.97;;
20318;SDS011;10317;47.254;11.314;2024-03-08T06:25:48;11.43;;;5.68;;
20318;SDS011;10317;47.254;11.314;2024-03-08T06:28:14;8.90;;;5.10;;
20318;SDS011;10317;47.254;11.314;2024-03-08T06:30:39;9.40;;;5.03;;
20318;SDS011;10317;47.254;11.314;2024-03-08T06:33:05;10.50;;;5.93;;
20318;SDS011;10317;47.254;11.314;2024-03-08T06:35:32;11.55;;;5.65;;
20318;SDS011;10317;47.254;11.314;2024-03-08T06:38:00;9.60;;;5.03;;
20318;SDS011;10317;47.254;11.314;2024-03-08T06:40:26;11.50;;;5.43;;
20318;SDS011;10317;47.254;11.314;2024-03-08T06:42:52;8.35;;;5.45;;
20318;SDS011;10317;47.254;11.314;2024-03-08T06:45:18;8.50;;;5.80;;
20318;SDS011;10317;47.254;11.314;2024-03-08T06:47:46;10.25;;;4.93;;
20318;SDS011;10317;47.254;11.314;2024-03-08T06:50:12;6.93;;;4.93;;
20318;SDS011;10317;47.254;11.314;2024-03-08T06:52:40;6.97;;;4.90;;
20318;SDS011;10317;47.254;11.314;2024-03-08T06:55:07;8.80;;;4.80;;
20318;SDS011;10317;47.254;11.314;2024-03-08T06:57:37;8.20;;;4.72;;
20318;SDS011;10317;47.254;11.314;2024-03-08T07:00:07;7.55;;;4.88;;
20318;SDS011;10317;47.254;11.314;2024-03-08T07:02:40;7.93;;;5.15;;
20318;SDS011;10317;47.254;11.314;2024-03-08T07:05:07;10.52;;;5.55;;
20318;SDS011;10317;47.254;11.314;2024-03-08T07:07:35;10.30;;;6.15;;
20318;SDS011;10317;47.254;11.314;2024-03-08T07:10:02;10.52;;;5.45;;
20318;SDS011;10317;47.254;11.314;2024-03-08T07:12:28;12.10;;;6.07;;
20318;SDS011;10317;47.254;11.314;2024-03-08T07:14:53;16.63;;;7.10;;
20318;SDS011;10317;47.254;11.314;2024-03-08T07:17:19;13.23;;;7.30;;
20318;SDS011;10317;47.254;11.314;2024-03-08T07:19:45;12.93;;;7.53;;
20318;SDS011;10317;47.254;11.314;2024-03-08T07:22:10;12.95;;;7.25;;
20318;SDS011;10317;47.254;11.314;2024-03-08T07:24:36;15.85;;;7.63;;
20318;SDS011;10317;47.254;11.314;2024-03-08T07:27:05;20.33;;;10.32;;
20318;SDS011;10317;47.254;11.314;2024-03-08T07:29:33;14.40;;;8.70;;
20318;SDS011;10317;47.254;11.314;2024-03-08T07:32:00;18.05;;;9.63;;
20318;SDS011;10317;47.254;11.314;2024-03-08T07:34:26;17.38;;;9.07;;
20318;SDS011;10317;47.254;11.314;2024-03-08T07:36:51;18.25;;;8.90;;
20318;SDS011;10317;47.254;11.314;2024-03-08T07:39:17;14.88;;;8.32;;
20318;SDS011;10317;47.254;11.314;2024-03-08T07:41:44;14.15;;;7.25;;
20318;SDS011;10317;47.254;11.314;2024-03-08T07:44:09;9.60;;;7.30;;
20318;SDS011;10317;47.254;11.314;2024-03-08T07:46:35;12.43;;;7.80;;
20318;SDS011;10317;47.254;11.314;2024-03-08T07:49:02;12.07;;;6.65;;
20318;SDS011;10317;47.254;11.314;2024-03-08T07:51:28;13.32;;;7.82;;
20318;SDS011;10317;47.254;11.314;2024-03-08T07:53:54;17.58;;;9.40;;
20318;SDS011;10317;47.254;11.314;2024-03-08T07:56:20;15.80;;;7.88;;
20318;SDS011;10317;47.254;11.314;2024-03-08T07:58:46;13.88;;;8.60;;
20318;SDS011;10317;47.254;11.314;2024-03-08T08:01:16;15.90;;;9.20;;
20318;SDS011;10317;47.254;11.314;2024-03-08T08:03:43;14.05;;;8.88;;
20318;SDS011;10317;47.254;11.314;2024-03-08T08:06:09;10.85;;;7.38;;
20318;SDS011;10317;47.254;11.314;2024-03-08T08:08:35;10.27;;;6.55;;
20318;SDS011;10317;47.254;11.314;2024-03-08T08:11:01;15.95;;;8.88;;
20318;SDS011;10317;47.254;11.314;2024-03-08T08:13:27;13.55;;;9.27;;
20318;SDS011;10317;47.254;11.314;2024-03-08T08:15:57;13.02;;;7.70;;
20318;SDS011;10317;47.254;11.314;2024-03-08T08:18:23;12.45;;;8.40;;
20318;SDS011;10317;47.254;11.314;2024-03-08T08:20:50;12.43;;;8.65;;
20318;SDS011;10317;47.254;11.314;2024-03-08T08:23:17;15.20;;;8.73;;
20318;SDS011;10317;47.254;11.314;2024-03-08T08:25:44;13.25;;;8.85;;
20318;SDS011;10317;47.254;11.314;2024-03-08T08:28:10;11.73;;;8.85;;
20318;SDS011;10317;47.254;11.314;2024-03-08T08:30:37;11.70;;;8.13;;
20318;SDS011;10317;47.254;11.314;2024-03-08T08:33:03;11.63;;;8.40;;
20318;SDS011;10317;47.254;11.314;2024-03-08T08:35:30;14.35;;;9.25;;
20318;SDS011;10317;47.254;11.314;2024-03-08T08:37:57;11.50;;;8.95;;
20318;SDS011;10317;47.254;11.314;2024-03-08T08:40:24;12.45;;;9.73;;
20318;SDS011;10317;47.254;11.314;2024-03-08T08:42:50;14.68;;;10.25;;
20318;SDS011;10317;47.254;11.314;2024-03-08T08:45:17;11.88;;;8.43;;
20318;SDS011;10317;47.254;11.314;2024-03-08T08:47:44;11.15;;;7.93;;
20318;SDS011;10317;47.254;11.314;2024-03-08T08:50:10;11.38;;;8.00;;
20318;SDS011;10317;47.254;11.314;2024-03-08T08:52:39;10.77;;;8.82;;
20318;SDS011;10317;47.254;11.314;2024-03-08T08:55:05;10.25;;;7.05;;
20318;SDS011;10317;47.254;11.314;2024-03-08T08:57:31;6.60;;;5.80;;
20318;SDS011;10317;47.254;11.314;2024-03-08T09:00:01;6.68;;;5.90;;
20318;SDS011;10317;47.254;11.314;2024-03-08T09:02:27;5.35;;;4.88;;
20318;SDS011;10317;47.254;11.314;2024-03-08T09:04:52;7.68;;;5.72;;
20318;SDS011;10317;47.254;11.314;2024-03-08T09:07:18;6.85;;;4.88;;
20318;SDS011;10317;47.254;11.314;2024-03-08T09:09:44;5.70;;;4.57;;
20318;SDS011;10317;47.254;11.314;2024-03-08T09:12:10;4.20;;;3.83;;
20318;SDS011;10317;47.254;11.314;2024-03-08T09:14:39;4.75;;;3.72;;
20318;SDS011;10317;47.254;11.314;2024-03-08T09:17:05;3.80;;;3.42;;
20318;SDS011;10317;47.254;11.314;2024-03-08T09:19:34;4.53;;;4.03;;
20318;SDS011;10317;47.254;11.314;2024-03-08T09:22:00;6.22;;;3.97;;
20318;SDS011;10317;47.254;11.314;2024-03-08T09:24:25;5.35;;;4.40;;
20318;SDS011;10317;47.254;11.314;2024-03-08T09:26:51;4.65;;;3.63;;
20318;SDS011;10317;47.254;11.314;2024-03-08T09:29:17;6.03;;;3.83;;
20318;SDS011;10317;47.254;11.314;2024-03-08T09:31:43;4.72;;;4.15;;
20318;SDS011;10317;47.254;11.314;2024-03-08T09:34:11;5.60;;;3.88;;
20318;SDS011;10317;47.254;11.314;2024-03-08T09:36:36;3.60;;;3.30;;
20318;SDS011;10317;47.254;11.314;2024-03-08T09:39:02;5.38;;;3.50;;
20318;SDS011;10317;47.254;11.314;2024-03-08T09:41:28;4.45;;;3.85;;
20318;SDS011;10317;47.254;11.314;2024-03-08T09:43:56;4.60;;;3.80;;
20318;SDS011;10317;47.254;11.314;2024-03-08T09:46:24;5.32;;;3.50;;
20318;SDS011;10317;47.254;11.314;2024-03-08T09:48:52;4.13;;;3.72;;
20318;SDS011;10317;47.254;11.314;2024-03-08T09:51:20;3.47;;;3.17;;
20318;SDS011;10317;47.254;11.314;2024-03-08T09:53:51;3.58;;;2.78;;
20318;SDS011;10317;47.254;11.314;2024-03-08T09:56:18;2.90;;;2.63;;
20318;SDS011;10317;47.254;11.314;2024-03-08T09:58:44;2.67;;;2.08;;
20318;SDS011;10317;47.254;11.314;2024-03-08T10:01:31;3.08;;;2.60;;
20318;SDS011;10317;47.254;11.314;2024-03-08T10:03:57;2.67;;;2.42;;
20318;SDS011;10317;47.254;11.314;2024-03-08T10:06:23;2.55;;;2.28;;
20318;SDS011;10317;47.254;11.314;2024-03-08T10:08:49;4.07;;;2.33;;
20318;SDS011;10317;47.254;11.314;2024-03-08T10:11:19;2.13;;;2.03;;
20318;SDS011;10317;47.254;11.314;2024-03-08T10:13:45;3.70;;;1.90;;
20318;SDS011;10317;47.254;11.314;2024-03-08T10:16:12;2.33;;;2.08;;
20318;SDS011;10317;47.254;11.314;2024-03-08T10:18:39;3.42;;;1.85;;
20318;SDS011;10317;47.254;11.314;2024-03-08T10:21:06;1.70;;;1.60;;
20318;SDS011;10317;47.254;11.314;2024-03-08T10:23:35;1.85;;;1.60;;
20318;SDS011;10317;47.254;11.314;2024-03-08T10:26:19;3.72;;;1.85;;
20318;SDS011;10317;47.254;11.314;2024-03-08T10:28:47;5.32;;;1.77;;
20318;SDS011;10317;47.254;11.314;2024-03-08T10:31:14;1.88;;;1.75;;
20318;SDS011;10317;47.254;11.314;2024-03-08T10:33:41;1.88;;;1.77;;
20318;SDS011;10317;47.254;11.314;2024-03-08T10:36:07;1.73;;;1.63;;
20318;SDS011;10317;47.254;11.314;2024-03-08T10:38:40;2.30;;;1.77;;
20318;SDS011;10317;47.254;11.314;2024-03-08T10:41:08;2.10;;;1.55;;
20318;SDS011;10317;47.254;11.314;2024-03-08T10:49:38;1.60;;;1.50;;
20318;SDS011;10317;47.254;11.314;2024-03-08T10:52:05;1.70;;;1.60;;
20318;SDS011;10317;47.254;11.314;2024-03-08T10:54:34;6.03;;;1.75;;
20318;SDS011;10317;47.254;11.314;2024-03-08T10:57:05;2.38;;;1.42;;
20318;SDS011;10317;47.254;11.314;2024-03-08T10:59:33;1.65;;;1.58;;
20318;SDS011;10317;47.254;11.314;2024-03-08T11:02:00;3.00;;;2.10;;
20318;SDS011;10317;47.254;11.314;2024-03-08T11:04:26;2.35;;;2.00;;
20318;SDS011;10317;47.254;11.314;2024-03-08T11:06:54;2.85;;;1.90;;
20318;SDS011;10317;47.254;11.314;2024-03-08T11:09:31;2.15;;;2.00;;
20318;SDS011;10317;47.254;11.314;2024-03-08T11:15:02;1.77;;;1.67;;
20318;SDS011;10317;47.254;11.314;2024-03-08T11:17:40;3.83;;;2.00;;
20318;SDS011;10317;47.254;11.314;2024-03-08T11:20:10;2.60;;;2.08;;
20318;SDS011;10317;47.254;11.314;2024-03-08T11:25:33;2.40;;;1.92;;
20318;SDS011;10317;47.254;11.314;2024-03-08T11:28:20;2.28;;;2.10;;
20318;SDS011;10317;47.254;11.314;2024-03-08T11:31:33;3.53;;;2.03;;
20318;SDS011;10317;47.254;11.314;2024-03-08T11:33:34;3.55;;;2.10;;
20318;SDS011;10317;47.254;11.314;2024-03-08T11:36:08;2.50;;;2.22;;
20318;SDS011;10317;47.254;11.314;2024-03-08T11:38:42;2.17;;;2.00;;
20318;SDS011;10317;47.254;11.314;2024-03-08T11:41:17;2.08;;;1.90;;
20318;SDS011;10317;47.254;11.314;2024-03-08T11:43:45;3.90;;;2.10;;
20318;SDS011;10317;47.254;11.314;2024-03-08T11:46:11;2.03;;;1.85;;
20318;SDS011;10317;47.254;11.314;2024-03-08T11:48:39;3.05;;;2.10;;
20318;SDS011;10317;47.254;11.314;2024-03-08T11:51:07;1.83;;;1.73;;
20318;SDS011;10317;47.254;11.314;2024-03-08T11:53:37;2.47;;;1.90;;
20318;SDS011;10317;47.254;11.314;2024-03-08T11:56:13;3.78;;;1.95;;
20318;SDS011;10317;47.254;11.314;2024-03-08T11:58:39;2.22;;;1.45;;
20318;SDS011;10317;47.254;11.314;2024-03-08T12:01:06;3.22;;;1.73;;
20318;SDS011;10317;47.254;11.314;2024-03-08T12:03:39;2.88;;;2.13;;
20318;SDS011;10317;47.254;11.314;2024-03-08T12:06:07;4.00;;;1.83;;
20318;SDS011;10317;47.254;11.314;2024-03-08T12:08:35;1.40;;;1.40;;
20318;SDS011;10317;47.254;11.314;2024-03-08T12:11:00;1.50;;;1.40;;
20318;SDS011;10317;47.254;11.314;2024-03-08T12:13:29;3.00;;;2.00;;
20318;SDS011;10317;47.254;11.314;2024-03-08T12:15:57;2.05;;;1.80;;
20318;SDS011;10317;47.254;11.314;2024-03-08T12:18:32;1.63;;;1.52;;
20318;SDS011;10317;47.254;11.314;2024-03-08T12:21:06;2.30;;;1.85;;
20318;SDS011;10317;47.254;11.314;2024-03-08T12:23:36;2.40;;;1.70;;
20318;SDS011;10317;47.254;11.314;2024-03-08T12:26:16;4.15;;;2.00;;
20318;SDS011;10317;47.254;11.314;2024-03-08T12:28:48;3.65;;;1.50;;
20318;SDS011;10317;47.254;11.314;2024-03-08T12:31:14;2.97;;;1.42;;
20318;SDS011;10317;47.254;11.314;2024-03-08T12:33:52;2.28;;;1.10;;
20318;SDS011;10317;47.254;11.314;2024-03-08T12:36:20;1.02;;;1.00;;
20318;SDS011;10317;47.254;11.314;2024-03-08T12:38:46;0.90;;;0.90;;
20318;SDS011;10317;47.254;11.314;2024-03-08T12:41:16;1.98;;;1.08;;
20318;SDS011;10317;47.254;11.314;2024-03-08T12:43:45;1.65;;;0.90;;
20318;SDS011;10317;47.254;11.314;2024-03-08T12:46:17;1.17;;;1.17;;
20318;SDS011;10317;47.254;11.314;2024-03-08T12:48:47;1.50;;;1.10;;
20318;SDS011;10317;47.254;11.314;2024-03-08T12:51:13;0.93;;;0.80;;
20318;SDS011;10317;47.254;11.314;2024-03-08T12:53:40;0.73;;;0.73;;
20318;SDS011;10317;47.254;11.314;2024-03-08T12:56:09;0.63;;;0.63;;
20318;SDS011;10317;47.254;11.314;2024-03-08T12:58:36;1.00;;;0.90;;
20318;SDS011;10317;47.254;11.314;2024-03-08T13:01:03;1.00;;;0.73;;
20318;SDS011;10317;47.254;11.314;2024-03-08T13:03:35;0.70;;;0.70;;
20318;SDS011;10317;47.254;11.314;2024-03-08T13:06:04;0.70;;;0.70;;
20318;SDS011;10317;47.254;11.314;2024-03-08T13:08:33;0.80;;;0.80;;
20318;SDS011;10317;47.254;11.314;2024-03-08T13:11:06;0.75;;;0.60;;
20318;SDS011;10317;47.254;11.314;2024-03-08T13:13:32;2.55;;;0.70;;
20318;SDS011;10317;47.254;11.314;2024-03-08T13:16:02;0.73;;;0.73;;
20318;SDS011;10317;47.254;11.314;2024-03-08T13:18:28;0.73;;;0.73;;
20318;SDS011;10317;47.254;11.314;2024-03-08T13:20:54;0.85;;;0.85;;
20318;SDS011;10317;47.254;11.314;2024-03-08T13:23:20;1.20;;;0.70;;
20318;SDS011;10317;47.254;11.314;2024-03-08T13:25:46;1.02;;;0.90;;
20318;SDS011;10317;47.254;11.314;2024-03-08T13:28:14;0.68;;;0.68;;
20318;SDS011;10317;47.254;11.314;2024-03-08T13:30:41;1.55;;;0.95;;
20318;SDS011;10317;47.254;11.314;2024-03-08T13:33:06;0.85;;;0.85;;
20318;SDS011;10317;47.254;11.314;2024-03-08T13:35:32;0.68;;;0.68;;
20318;SDS011;10317;47.254;11.314;2024-03-08T13:37:59;0.70;;;0.70;;
20318;SDS011;10317;47.254;11.314;2024-03-08T13:40:28;0.70;;;0.70;;
20318;SDS011;10317;47.254;11.314;2024-03-08T13:42:53;0.80;;;0.80;;
20318;SDS011;10317;47.254;11.314;2024-03-08T13:45:19;1.08;;;1.08;;
20318;SDS011;10317;47.254;11.314;2024-03-08T13:47:49;1.00;;;1.00;;
20318;SDS011;10317;47.254;11.314;2024-03-08T13:50:16;0.95;;;0.95;;
20318;SDS011;10317;47.254;11.314;2024-03-08T13:52:46;1.00;;;1.00;;
20318;SDS011;10317;47.254;11.314;2024-03-08T13:55:17;1.00;;;1.00;;
20318;SDS011;10317;47.254;11.314;2024-03-08T13:57:43;0.80;;;0.80;;
20318;SDS011;10317;47.254;11.314;2024-03-08T14:00:10;1.30;;;1.30;;
20318;SDS011;10317;47.254;11.314;2024-03-08T14:02:37;0.80;;;0.80;;
20318;SDS011;10317;47.254;11.314;2024-03-08T14:05:06;0.85;;;0.85;;
20318;SDS011;10317;47.254;11.314;2024-03-08T14:07:34;2.17;;;1.17;;
20318;SDS011;10317;47.254;11.314;2024-03-08T14:10:00;0.90;;;0.90;;
20318;SDS011;10317;47.254;11.314;2024-03-08T14:12:26;0.77;;;0.77;;
20318;SDS011;10317;47.254;11.314;2024-03-08T14:14:54;1.10;;;1.10;;
20318;SDS011;10317;47.254;11.314;2024-03-08T14:17:24;1.13;;;1.13;;
20318;SDS011;10317;47.254;11.314;2024-03-08T14:19:52;1.10;;;1.10;;
20318;SDS011;10317;47.254;11.314;2024-03-08T14:22:18;1.92;;;1.20;;
20318;SDS011;10317;47.254;11.314;2024-03-08T14:24:45;0.98;;;0.98;;
20318;SDS011;10317;47.254;11.314;2024-03-08T14:27:10;1.17;;;1.17;;
20318;SDS011;10317;47.254;11.314;2024-03-08T14:29:37;1.10;;;1.10;;
20318;SDS011;10317;47.254;11.314;2024-03-08T14:32:04;1.08;;;1.08;;
20318;SDS011;10317;47.254;11.314;2024-03-08T14:34:31;3.53;;;1.20;;
20318;SDS011;10317;47.254;11.314;2024-03-08T14:36:58;1.15;;;1.15;;
20318;SDS011;10317;47.254;11.314;2024-03-08T14:39:25;1.33;;;1.30;;